Time;durP1;ratioP1;P1;durP2;ratioP2;P2;SDS_P1;SDS_P2;PMS_P1;PMS_P2;Temp;Humidity;BMP_temperature;BMP_pressure;BME280_temperature;BME280_humidity;BME280_pressure;Samples;Min_cycle;Max_cycle;Signal;HPM_P1;HPM_P2
2022/12/16 00:02:00;;;;;;;4.62;1.33;;;-5.30;99.90;;;;;;4401178;32;20089;-75
2022/12/16 00:04:25;;;;;;;7.43;2.78;;;-5.30;99.90;;;;;;4401338;32;20435;-75
2022/12/16 00:06:51;;;;;;;0.70;0.70;;;-5.20;99.90;;;;;;4400375;32;20132;-75
2022/12/16 00:09:16;;;;;;;10.88;2.08;;;-5.20;99.90;;;;;;4400949;32;20094;-74
2022/12/16 00:11:41;;;;;;;10.65;4.53;;;-5.20;99.90;;;;;;4383292;32;20156;-75
2022/12/16 00:14:07;;;;;;;1.55;1.45;;;-5.30;99.90;;;;;;4398354;32;20592;-75
2022/12/16 00:16:32;;;;;;;0.68;0.68;;;-5.40;99.90;;;;;;4411578;32;20097;-74
2022/12/16 00:18:58;;;;;;;1.90;1.52;;;-5.30;99.90;;;;;;4416894;32;20077;-76
2022/12/16 00:21:28;;;;;;;0.68;0.68;;;-5.20;99.90;;;;;;4410800;32;20094;-76
2022/12/16 00:23:55;;;;;;;1.52;1.42;;;-5.20;99.90;;;;;;4413354;32;20575;-78
2022/12/16 00:26:20;;;;;;;1.50;1.40;;;-5.10;99.90;;;;;;4411628;32;20431;-75
2022/12/16 00:28:47;;;;;;;4.65;1.85;;;-5.10;99.90;;;;;;4400452;32;20221;-74
2022/12/16 00:31:12;;;;;;;1.08;1.08;;;-5.20;99.90;;;;;;4391702;32;20081;-74
2022/12/16 00:33:38;;;;;;;0.60;0.60;;;-5.30;99.90;;;;;;4401110;32;20102;-74
2022/12/16 00:36:03;;;;;;;1.35;1.25;;;-5.40;99.90;;;;;;4401691;32;20147;-76
2022/12/16 00:38:29;;;;;;;0.80;0.80;;;-5.40;99.90;;;;;;4386669;32;20106;-75
2022/12/16 00:40:54;;;;;;;1.90;1.77;;;-5.50;99.90;;;;;;4394567;32;20682;-74
2022/12/16 00:43:20;;;;;;;5.97;2.70;;;-5.50;99.90;;;;;;4387888;32;20153;-74
2022/12/16 00:45:47;;;;;;;0.65;0.65;;;-5.60;99.90;;;;;;4404944;32;21005;-75
2022/12/16 00:48:13;;;;;;;1.15;1.15;;;-5.50;99.90;;;;;;4415779;32;20105;-74
2022/12/16 00:50:39;;;;;;;6.12;4.43;;;-5.40;99.90;;;;;;4413821;32;20101;-76
2022/12/16 00:53:05;;;;;;;3.08;2.33;;;-5.30;99.90;;;;;;4412714;32;20061;-76
2022/12/16 00:55:31;;;;;;;1.73;1.62;;;-5.20;99.90;;;;;;4411742;32;20127;-76
2022/12/16 00:57:57;;;;;;;1.48;1.37;;;-5.10;99.90;;;;;;4413346;32;20139;-75
2022/12/16 01:00:23;;;;;;;1.45;1.35;;;-5.10;99.90;;;;;;4391316;32;20093;-74
2022/12/16 01:02:50;;;;;;;0.50;0.50;;;-5.00;99.90;;;;;;4401955;32;20073;-74
2022/12/16 01:05:19;;;;;;;1.30;1.20;;;-5.30;99.90;;;;;;4397930;32;20096;-75
2022/12/16 01:07:45;;;;;;;0.85;0.85;;;-5.40;99.90;;;;;;4401558;32;20911;-75
2022/12/16 01:10:11;;;;;;;4.37;2.80;;;-5.30;99.90;;;;;;4398596;32;20080;-75
2022/12/16 01:12:36;;;;;;;1.05;0.98;;;-5.30;99.90;;;;;;4381596;32;20085;-74
2022/12/16 01:15:04;;;;;;;0.60;0.60;;;-5.30;99.90;;;;;;4403902;32;20082;-75
2022/12/16 01:17:29;;;;;;;3.42;1.37;;;-5.40;99.90;;;;;;4412234;32;20132;-76
2022/12/16 01:19:55;;;;;;;1.17;1.08;;;-5.40;99.90;;;;;;4412036;32;20597;-75
2022/12/16 01:22:21;;;;;;;4.30;3.53;;;-5.40;99.90;;;;;;4414619;32;20073;-76
2022/12/16 01:24:47;;;;;;;0.70;0.70;;;-5.30;99.90;;;;;;4413840;32;20085;-74
2022/12/16 01:27:13;;;;;;;0.60;0.60;;;-5.30;99.90;;;;;;4411125;32;20089;-75
2022/12/16 01:29:39;;;;;;;1.23;1.20;;;-5.30;99.90;;;;;;4394905;32;20576;-75
2022/12/16 01:32:05;;;;;;;1.02;1.02;;;-5.20;99.90;;;;;;4401123;32;20132;-75
2022/12/16 01:34:30;;;;;;;1.10;1.10;;;-5.10;99.90;;;;;;4400171;32;21386;-74
2022/12/16 01:36:56;;;;;;;1.80;1.70;;;-5.20;99.90;;;;;;4403166;32;20072;-74
2022/12/16 01:39:22;;;;;;;0.60;0.60;;;-5.20;99.90;;;;;;4404290;32;20525;-75
2022/12/16 01:41:47;;;;;;;2.50;1.12;;;-5.20;99.90;;;;;;4381826;32;20237;-75
2022/12/16 01:44:16;;;;;;;1.30;1.25;;;-5.20;99.90;;;;;;4397139;32;20453;-74
2022/12/16 01:46:48;;;;;;;0.80;0.80;;;-5.20;99.90;;;;;;4411365;32;20085;-75
2022/12/16 01:49:24;;;;;;;0.85;0.85;;;-5.20;99.90;;;;;;4409680;32;20498;-74
2022/12/16 01:51:50;;;;;;;2.30;1.55;;;-5.20;99.90;;;;;;4408894;32;20081;-76
2022/12/16 01:54:21;;;;;;;0.80;0.80;;;-5.20;99.90;;;;;;4410775;32;20104;-77
2022/12/16 01:56:59;;;;;;;0.70;0.70;;;-5.30;99.90;;;;;;4412563;32;20093;-75
2022/12/16 01:59:29;;;;;;;1.67;1.55;;;-5.20;99.90;;;;;;4399360;32;20065;-75
2022/12/16 02:01:55;;;;;;;2.17;1.67;;;-5.30;99.90;;;;;;4398633;32;20086;-73
2022/12/16 02:04:20;;;;;;;1.05;1.02;;;-5.20;99.90;;;;;;4398772;32;20138;-73
2022/12/16 02:06:46;;;;;;;10.13;2.87;;;-5.20;99.90;;;;;;4399871;32;20069;-75
2022/12/16 02:09:14;;;;;;;3.08;2.78;;;-5.30;99.90;;;;;;4399076;32;20073;-75
2022/12/16 02:11:48;;;;;;;0.93;0.93;;;-5.30;99.90;;;;;;4377190;32;20070;-75
2022/12/16 02:14:36;;;;;;;1.70;1.60;;;-5.40;99.90;;;;;;4396970;32;20502;-75
2022/12/16 02:17:13;;;;;;;4.15;2.30;;;-5.40;99.90;;;;;;4401581;32;20465;-76
2022/12/16 02:20:00;;;;;;;4.85;3.65;;;-5.30;99.90;;;;;;4410815;32;20173;-76
2022/12/16 02:22:48;;;;;;;0.68;0.68;;;-5.30;99.90;;;;;;4400192;32;20093;-75
2022/12/16 02:25:36;;;;;;;2.62;2.37;;;-5.30;99.90;;;;;;4413781;32;20577;-75
2022/12/16 02:28:10;;;;;;;0.77;0.77;;;-5.20;99.90;;;;;;4397602;32;20101;-75
2022/12/16 02:31:15;;;;;;;3.87;2.33;;;-5.20;99.90;;;;;;4392321;32;20464;-75
2022/12/16 02:33:58;;;;;;;6.00;3.03;;;-5.20;99.90;;;;;;4383942;32;20070;-75
2022/12/16 02:36:49;;;;;;;2.47;1.90;;;-5.40;99.90;;;;;;4401955;32;20098;-75
2022/12/16 02:39:34;;;;;;;3.90;2.10;;;-5.60;99.90;;;;;;4392084;32;20104;-77
2022/12/16 02:42:10;;;;;;;1.08;1.08;;;-5.60;99.90;;;;;;4377562;32;20123;-74
2022/12/16 02:44:54;;;;;;;0.40;0.40;;;-5.50;99.90;;;;;;4400567;32;20069;-74
2022/12/16 02:47:19;;;;;;;4.80;3.42;;;-5.50;99.90;;;;;;4413685;32;20061;-76
2022/12/16 02:49:48;;;;;;;2.55;1.60;;;-5.40;99.90;;;;;;4412495;32;20464;-75
2022/12/16 02:52:16;;;;;;;1.70;1.55;;;-5.50;99.90;;;;;;4415390;32;20494;-75
2022/12/16 02:54:42;;;;;;;7.72;2.75;;;-5.50;99.90;;;;;;4411682;32;20090;-74
2022/12/16 02:57:16;;;;;;;2.70;2.42;;;-5.40;99.90;;;;;;4413231;32;20100;-74
2022/12/16 02:59:55;;;;;;;0.70;0.70;;;-5.50;99.90;;;;;;4394619;32;20085;-76
2022/12/16 03:02:30;;;;;;;0.50;0.50;;;-5.60;99.90;;;;;;4404133;32;20414;-75
2022/12/16 03:05:05;;;;;;;1.33;1.23;;;-5.80;99.90;;;;;;4401244;32;21153;-77
2022/12/16 03:07:35;;;;;;;0.88;0.88;;;-5.90;99.90;;;;;;4401218;32;20494;-75
2022/12/16 03:10:05;;;;;;;2.03;1.85;;;-5.70;99.90;;;;;;4404401;32;20132;-75
2022/12/16 03:12:32;;;;;;;1.10;1.05;;;-5.60;99.90;;;;;;4380785;32;20459;-75
2022/12/16 03:14:58;;;;;;;0.80;0.80;;;-5.60;99.90;;;;;;4405275;32;20093;-76
2022/12/16 03:17:26;;;;;;;0.93;0.93;;;-5.60;99.90;;;;;;4414757;32;20179;-77
2022/12/16 03:20:04;;;;;;;4.37;1.77;;;-5.50;99.90;;;;;;4414189;32;20098;-75
2022/12/16 03:22:34;;;;;;;1.10;1.10;;;-5.50;99.90;;;;;;4413685;32;20899;-77
2022/12/16 03:24:59;;;;;;;3.50;2.80;;;-5.40;99.90;;;;;;4412392;32;20073;-75
2022/12/16 03:27:50;;;;;;;1.73;1.62;;;-5.40;99.90;;;;;;4415390;32;20077;-76
2022/12/16 03:30:19;;;;;;;1.37;1.25;;;-5.50;99.90;;;;;;4379771;32;20081;-74
2022/12/16 03:32:57;;;;;;;2.63;1.67;;;-5.70;99.90;;;;;;4402720;32;20066;-75
2022/12/16 03:35:32;;;;;;;1.45;1.35;;;-5.80;99.90;;;;;;4401186;32;20716;-74
2022/12/16 03:38:00;;;;;;;4.72;3.55;;;-5.60;99.90;;;;;;4399432;32;20113;-75
2022/12/16 03:40:27;;;;;;;2.22;2.05;;;-5.60;99.90;;;;;;4401923;32;20348;-75
2022/12/16 03:42:53;;;;;;;3.35;2.47;;;-5.50;99.90;;;;;;4389578;32;20235;-75
2022/12/16 03:45:24;;;;;;;1.10;1.10;;;-5.50;99.90;;;;;;4409593;32;20124;-76
2022/12/16 03:47:51;;;;;;;0.60;0.60;;;-5.50;99.90;;;;;;4416311;32;20522;-76
2022/12/16 03:50:33;;;;;;;3.75;2.45;;;-5.50;99.90;;;;;;4413937;32;20567;-75
2022/12/16 03:52:59;;;;;;;1.52;1.42;;;-5.40;99.90;;;;;;4411670;32;20088;-74
2022/12/16 03:55:24;;;;;;;0.75;0.75;;;-5.50;99.90;;;;;;4413531;32;20078;-76
2022/12/16 03:57:50;;;;;;;0.50;0.50;;;-5.50;99.90;;;;;;4411367;32;20061;-75
2022/12/16 04:00:16;;;;;;;1.52;1.42;;;-5.40;99.90;;;;;;4390848;32;20077;-74
2022/12/16 04:02:42;;;;;;;0.62;0.62;;;-5.40;99.90;;;;;;4399586;32;20082;-75
2022/12/16 04:05:08;;;;;;;1.48;1.37;;;-5.50;99.90;;;;;;4401843;32;20073;-74
2022/12/16 04:07:33;;;;;;;1.85;1.65;;;-5.40;99.90;;;;;;4405705;32;20175;-75
2022/12/16 04:09:59;;;;;;;1.27;1.23;;;-5.50;99.90;;;;;;4400501;32;20093;-75
2022/12/16 04:24:33;;;;;;;1.27;1.25;;;-5.70;99.90;;;;;;4398994;32;20121;-76
2022/12/16 04:26:20;;;;;;;0.43;0.43;;;-5.60;99.90;;;;;;4400659;32;20125;-75
2022/12/16 04:28:46;;;;;;;1.25;1.23;;;-5.80;99.90;;;;;;4405522;32;20128;-75
2022/12/16 04:31:12;;;;;;;0.62;0.62;;;-5.80;99.90;;;;;;4394387;32;21009;-75
2022/12/16 04:34:37;;;;;;;0.75;0.75;;;-5.80;99.90;;;;;;4399837;32;20240;-75
